createdAt,value
2017-06-23T00:00:51.854Z,1003.81
2017-06-23T00:01:51.844Z,1003.8
2017-06-23T00:02:51.834Z,1003.75
2017-06-23T00:03:51.834Z,1003.76
2017-06-23T00:04:51.815Z,1003.79
2017-06-23T00:05:51.808Z,1003.82
2017-06-23T00:06:51.800Z,1003.86
2017-06-23T00:07:51.790Z,1003.85
2017-06-23T00:08:51.782Z,1003.84
2017-06-23T00:09:51.772Z,1003.83
2017-06-23T00:10:51.763Z,1003.92
2017-06-23T00:11:51.755Z,1003.9
2017-06-23T00:12:51.747Z,1003.94
2017-06-23T00:13:51.737Z,1003.92
2017-06-23T00:14:51.729Z,1004.06
2017-06-23T00:15:51.720Z,1003.93
2017-06-23T00:16:51.712Z,1004.03
2017-06-23T00:17:51.702Z,1004.02
2017-06-23T00:18:51.695Z,1003.95
2017-06-23T00:19:51.688Z,1003.98
2017-06-23T00:20:51.676Z,1003.96
2017-06-23T00:21:51.669Z,1003.97
2017-06-23T00:22:51.657Z,1003.99
2017-06-23T00:23:51.650Z,1004.04
2017-06-23T00:24:51.641Z,1004.05
2017-06-23T00:25:51.634Z,1004.05
2017-06-23T00:26:51.624Z,1004.05
2017-06-23T00:27:51.616Z,1004.02
2017-06-23T00:28:51.628Z,1004.05
2017-06-23T00:29:51.598Z,1004.03
2017-06-23T00:30:51.589Z,1004.02
2017-06-23T00:31:51.580Z,1004.01
2017-06-23T00:32:51.572Z,1004.05
2017-06-23T00:33:51.563Z,1004
2017-06-23T00:34:51.555Z,1003.99
2017-06-23T00:35:51.545Z,1003.97
2017-06-23T00:36:51.536Z,1003.96
2017-06-23T00:37:51.529Z,1003.91
2017-06-23T00:38:51.522Z,1003.94
2017-06-23T00:39:51.510Z,1003.94
2017-06-23T00:40:51.502Z,1003.95
2017-06-23T00:41:51.493Z,1003.89
2017-06-23T00:42:51.482Z,1003.94
2017-06-23T00:43:51.474Z,1003.92
2017-06-23T00:44:51.467Z,1003.93
2017-06-23T00:45:51.458Z,1003.86
2017-06-23T00:46:51.449Z,1003.91
2017-06-23T00:47:51.441Z,1003.91
2017-06-23T00:48:51.432Z,1003.85
2017-06-23T00:49:51.422Z,1003.84
2017-06-23T00:50:51.415Z,1003.87
2017-06-23T00:51:51.405Z,1003.88
2017-06-23T00:52:51.395Z,1003.91
2017-06-23T00:53:51.386Z,1003.94
2017-06-23T00:54:51.379Z,1003.96
2017-06-23T00:55:51.370Z,1003.97
2017-06-23T00:56:51.362Z,1003.91
2017-06-23T00:57:51.352Z,1003.93
2017-06-23T00:58:51.344Z,1003.97
2017-06-23T00:59:51.337Z,1003.86
2017-06-23T01:00:51.327Z,1003.9
2017-06-23T01:01:51.318Z,1003.9
2017-06-23T01:02:51.309Z,1003.92
2017-06-23T01:03:51.301Z,1003.89
2017-06-23T01:04:51.291Z,1003.92
2017-06-23T01:05:51.282Z,1003.94
2017-06-23T01:06:51.274Z,1003.96
2017-06-23T01:07:51.266Z,1003.94
2017-06-23T01:08:51.256Z,1003.89
2017-06-23T01:09:51.248Z,1003.94
2017-06-23T01:10:51.240Z,1003.91
2017-06-23T01:11:51.230Z,1003.93
2017-06-23T01:12:51.223Z,1003.93
2017-06-23T01:13:51.213Z,1003.92
2017-06-23T01:14:51.205Z,1003.98
2017-06-23T01:15:51.194Z,1003.97
2017-06-23T01:16:51.187Z,1003.95
2017-06-23T01:17:51.179Z,1003.93
2017-06-23T01:18:51.169Z,1003.96
2017-06-23T01:19:51.160Z,1003.89
2017-06-23T01:20:51.153Z,1003.88
2017-06-23T01:21:51.144Z,1003.88
2017-06-23T01:22:51.135Z,1003.95
2017-06-23T01:23:51.126Z,1003.94
2017-06-23T01:24:51.118Z,1003.94
2017-06-23T01:25:51.108Z,1003.86
2017-06-23T01:26:51.099Z,1003.93
2017-06-23T01:27:51.091Z,1003.92
2017-06-23T01:28:51.081Z,1003.96
2017-06-23T01:29:51.073Z,1003.87
2017-06-23T01:30:51.063Z,1003.89
2017-06-23T01:31:51.056Z,1003.9
2017-06-23T01:32:51.046Z,1003.89
2017-06-23T01:33:51.037Z,1003.82
2017-06-23T01:34:51.233Z,1003.79
2017-06-23T01:35:51.021Z,1003.79
2017-06-23T01:36:51.010Z,1003.83
2017-06-23T01:37:51.001Z,1003.88
2017-06-23T01:38:50.992Z,1003.88
2017-06-23T01:39:50.985Z,1003.89
2017-06-23T01:40:50.977Z,1003.89
2017-06-23T01:41:50.965Z,1003.89
2017-06-23T01:42:50.958Z,1003.87
2017-06-23T01:43:50.948Z,1003.86
2017-06-23T01:44:50.939Z,1003.9
2017-06-23T01:45:50.931Z,1003.9
2017-06-23T01:46:50.922Z,1003.92
2017-06-23T01:47:50.913Z,1003.89
2017-06-23T01:48:50.904Z,1003.92
2017-06-23T01:49:50.896Z,1003.91
2017-06-23T01:50:50.885Z,1003.89
2017-06-23T01:51:50.879Z,1003.87
2017-06-23T01:52:50.871Z,1003.87
2017-06-23T01:53:50.860Z,1003.89
2017-06-23T01:54:50.853Z,1003.87
2017-06-23T01:55:50.842Z,1003.86
2017-06-23T01:56:50.833Z,1003.84
2017-06-23T01:57:50.824Z,1003.85
2017-06-23T01:58:50.816Z,1003.85
2017-06-23T01:59:50.813Z,1003.83
2017-06-23T02:00:50.798Z,1003.87
2017-06-23T02:01:50.789Z,1003.87
2017-06-23T02:02:50.780Z,1003.88
2017-06-23T02:03:50.772Z,1003.88
2017-06-23T02:04:50.764Z,1003.93
2017-06-23T02:05:50.757Z,1003.92
2017-06-23T02:06:50.745Z,1003.9
2017-06-23T02:07:50.736Z,1003.89
2017-06-23T02:08:50.727Z,1003.89
2017-06-23T02:09:50.719Z,1003.9
2017-06-23T02:10:50.709Z,1003.89
2017-06-23T02:11:50.701Z,1003.92
2017-06-23T02:12:50.695Z,1003.91
2017-06-23T02:13:50.683Z,1003.92
2017-06-23T02:14:50.675Z,1003.9
2017-06-23T02:15:50.667Z,1003.87
2017-06-23T02:16:50.683Z,1003.94
2017-06-23T02:17:50.647Z,1003.98
2017-06-23T02:18:50.640Z,1003.9
2017-06-23T02:19:50.637Z,1003.94
2017-06-23T02:20:50.621Z,1003.96
2017-06-23T02:21:50.612Z,1003.9
2017-06-23T02:22:50.603Z,1003.85
2017-06-23T02:23:50.596Z,1003.83
2017-06-23T02:24:50.587Z,1003.8
2017-06-23T02:25:50.577Z,1003.97
2017-06-23T02:26:50.567Z,1003.93
2017-06-23T02:27:50.558Z,1003.92
2017-06-23T02:28:50.549Z,1003.91
2017-06-23T02:29:50.541Z,1003.91
2017-06-23T02:30:50.532Z,1004.04
2017-06-23T02:31:50.525Z,1003.89
2017-06-23T02:32:50.514Z,1003.91
2017-06-23T02:33:50.504Z,1003.94
2017-06-23T02:34:50.499Z,1003.93
2017-06-23T02:35:50.490Z,1003.94
2017-06-23T02:36:50.478Z,1003.92
2017-06-23T02:37:50.471Z,1003.96
2017-06-23T02:38:50.460Z,1003.95
2017-06-23T02:39:50.451Z,1003.97
2017-06-23T02:40:50.443Z,1003.98
2017-06-23T02:41:50.433Z,1003.99
2017-06-23T02:42:50.427Z,1004.07
2017-06-23T02:43:50.415Z,1003.96
2017-06-23T02:44:50.407Z,1003.93
2017-06-23T02:45:50.397Z,1003.95
2017-06-23T02:46:50.389Z,1003.95
2017-06-23T02:47:50.382Z,1003.99
2017-06-23T02:48:50.371Z,1003.97
2017-06-23T02:49:50.365Z,1004.02
2017-06-23T02:50:50.353Z,1004.04
2017-06-23T02:51:50.345Z,1004.04
2017-06-23T02:52:50.336Z,1004.09
2017-06-23T02:53:50.327Z,1004.08
2017-06-23T02:54:50.317Z,1004.03
2017-06-23T02:55:50.309Z,1004
2017-06-23T02:56:50.302Z,1004.02
2017-06-23T02:57:50.290Z,1004.02
2017-06-23T02:58:50.282Z,1004
2017-06-23T02:59:50.275Z,1004.03
2017-06-23T03:00:50.269Z,1003.99
2017-06-23T03:01:50.256Z,1004.01
2017-06-23T03:02:50.247Z,1004.01
2017-06-23T03:03:50.237Z,1004.03
2017-06-23T03:04:50.229Z,1004.03
2017-06-23T03:05:50.219Z,1004.02
2017-06-23T03:06:50.211Z,1004.05
2017-06-23T03:07:50.203Z,1004.04
2017-06-23T03:08:50.192Z,1004.06
2017-06-23T03:09:50.182Z,1004.04
2017-06-23T03:10:50.192Z,1004.09
2017-06-23T03:11:50.167Z,1004.06
2017-06-23T03:12:50.159Z,1004.08
2017-06-23T03:13:50.148Z,1004.14
2017-06-23T03:14:50.140Z,1004.12
2017-06-23T03:15:50.133Z,1004.16
2017-06-23T03:16:50.121Z,1004.13
2017-06-23T03:17:50.113Z,1004.18
2017-06-23T03:18:50.104Z,1004.19
2017-06-23T03:19:50.093Z,1004.2
2017-06-23T03:20:50.085Z,1004.14
2017-06-23T03:21:50.075Z,1004.1
2017-06-23T03:22:50.071Z,1004.14
2017-06-23T03:23:50.060Z,1004.15
2017-06-23T03:24:50.049Z,1004.15
2017-06-23T03:25:50.042Z,1004.17
2017-06-23T03:26:50.031Z,1004.2
2017-06-23T03:27:50.021Z,1004.15
2017-06-23T03:28:50.013Z,1004.22
2017-06-23T03:29:50.005Z,1004.21
2017-06-23T03:30:49.996Z,1004.19
2017-06-23T03:31:49.988Z,1004.18
2017-06-23T03:32:49.978Z,1004.2
2017-06-23T03:33:49.971Z,1004.24
2017-06-23T03:34:50.160Z,1004.26
2017-06-23T03:35:49.951Z,1004.25
2017-06-23T03:36:49.941Z,1004.33
2017-06-23T03:37:49.934Z,1004.34
2017-06-23T03:38:49.925Z,1004.32
2017-06-23T03:39:49.917Z,1004.31
2017-06-23T03:40:49.915Z,1004.32
2017-06-23T03:41:49.898Z,1004.32
2017-06-23T03:42:49.887Z,1004.35
2017-06-23T03:43:49.882Z,1004.34
2017-06-23T03:44:49.870Z,1004.37
2017-06-23T03:45:49.860Z,1004.31
2017-06-23T03:46:49.851Z,1004.29
2017-06-23T03:47:49.844Z,1004.28
2017-06-23T03:48:49.834Z,1004.31
2017-06-23T03:49:49.825Z,1004.32
2017-06-23T03:50:49.815Z,1004.33
2017-06-23T03:51:49.806Z,1004.33
2017-06-23T03:52:49.797Z,1004.33
2017-06-23T03:53:49.788Z,1004.33
2017-06-23T03:54:49.780Z,1004.32
2017-06-23T03:55:49.770Z,1004.37
2017-06-23T03:56:49.762Z,1004.35
2017-06-23T03:57:49.752Z,1004.38
2017-06-23T03:58:49.747Z,1004.4
2017-06-23T03:59:49.734Z,1004.41
2017-06-23T04:00:49.725Z,1004.49
2017-06-23T04:01:49.715Z,1004.48
2017-06-23T04:02:49.707Z,1004.45
2017-06-23T04:03:49.699Z,1004.47
2017-06-23T04:04:49.690Z,1004.48
2017-06-23T04:05:49.679Z,1004.51
2017-06-23T04:06:49.671Z,1004.52
2017-06-23T04:07:49.666Z,1004.49
2017-06-23T04:08:49.653Z,1004.5
2017-06-23T04:09:49.644Z,1004.59
2017-06-23T04:10:49.635Z,1004.54
2017-06-23T04:11:49.627Z,1004.55
2017-06-23T04:12:49.619Z,1004.54
2017-06-23T04:13:49.608Z,1004.56
2017-06-23T04:14:49.598Z,1004.55
2017-06-23T04:15:49.590Z,1004.57
2017-06-23T04:16:49.582Z,1004.6
2017-06-23T04:17:49.573Z,1004.61
2017-06-23T04:18:49.562Z,1004.61
2017-06-23T04:19:49.554Z,1004.63
2017-06-23T04:20:49.545Z,1004.65
2017-06-23T04:21:49.536Z,1004.64
2017-06-23T04:22:49.527Z,1004.64
2017-06-23T04:23:49.520Z,1004.65
2017-06-23T04:24:49.510Z,1004.68
2017-06-23T04:25:49.501Z,1004.71
2017-06-23T04:26:49.492Z,1004.77
2017-06-23T04:27:49.484Z,1004.78
2017-06-23T04:28:49.474Z,1004.77
2017-06-23T04:29:49.467Z,1004.78
2017-06-23T04:30:49.457Z,1004.79
2017-06-23T04:31:49.449Z,1004.78
2017-06-23T04:32:49.437Z,1004.76
2017-06-23T04:33:49.430Z,1004.76
2017-06-23T04:34:49.421Z,1004.83
2017-06-23T04:35:49.413Z,1004.85
2017-06-23T04:36:49.402Z,1004.81
2017-06-23T04:37:49.394Z,1004.77
2017-06-23T04:38:49.385Z,1004.83
2017-06-23T04:39:49.377Z,1004.83
2017-06-23T04:40:49.369Z,1004.85
2017-06-23T04:41:49.357Z,1004.85
2017-06-23T04:42:49.349Z,1004.89
2017-06-23T04:43:49.340Z,1004.93
2017-06-23T04:44:49.332Z,1004.93
2017-06-23T04:45:49.322Z,1004.88
2017-06-23T04:46:49.316Z,1004.96
2017-06-23T04:47:49.304Z,1004.96
2017-06-23T04:48:49.295Z,1005
2017-06-23T04:49:49.288Z,1005.01
2017-06-23T04:50:49.277Z,1004.99
2017-06-23T04:51:49.269Z,1005.02
2017-06-23T04:52:49.260Z,1005.03
2017-06-23T04:53:49.255Z,1005.08
2017-06-23T04:54:49.248Z,1005.06
2017-06-23T04:55:49.233Z,1005.04
2017-06-23T04:56:49.225Z,1005.05
2017-06-23T04:57:49.216Z,1005.03
2017-06-23T04:58:49.207Z,1005.03
2017-06-23T04:59:49.197Z,1005.01
2017-06-23T05:00:49.189Z,1005.05
2017-06-23T05:01:49.182Z,1005.03
2017-06-23T05:02:49.172Z,1005.06
2017-06-23T05:03:49.164Z,1005.05
2017-06-23T05:04:49.154Z,1005.08
2017-06-23T05:06:49.136Z,1005.11
2017-06-23T05:07:49.128Z,1005.09
2017-06-23T05:08:49.120Z,1005.09
2017-06-23T05:09:49.109Z,1005.09
2017-06-23T05:10:49.102Z,1005.08
2017-06-23T05:11:49.096Z,1005.11
2017-06-23T05:12:49.085Z,1005.12
2017-06-23T05:13:49.076Z,1005.19
2017-06-23T05:14:49.066Z,1005.22
2017-06-23T05:15:49.058Z,1005.2
2017-06-23T05:16:49.049Z,1005.18
2017-06-23T05:17:49.091Z,1005.18
2017-06-23T05:18:49.035Z,1005.26
2017-06-23T05:19:49.024Z,1005.2
2017-06-23T05:20:49.015Z,1005.24
2017-06-23T05:21:49.007Z,1005.34
2017-06-23T05:22:48.998Z,1005.23
2017-06-23T05:23:48.990Z,1005.23
2017-06-23T05:24:48.982Z,1005.18
2017-06-23T05:25:48.976Z,1005.17
2017-06-23T05:26:48.963Z,1005.17
2017-06-23T05:27:48.954Z,1005.23
2017-06-23T05:28:48.946Z,1005.2
2017-06-23T05:29:48.939Z,1005.2
2017-06-23T05:30:48.931Z,1005.24
2017-06-23T05:31:48.922Z,1005.21
2017-06-23T05:32:48.914Z,1005.2
2017-06-23T05:33:48.906Z,1005.25
2017-06-23T05:34:49.103Z,1005.3
2017-06-23T05:35:48.889Z,1005.3
2017-06-23T05:36:48.880Z,1005.36
2017-06-23T05:37:48.873Z,1005.35
2017-06-23T05:38:48.863Z,1005.36
2017-06-23T05:39:48.856Z,1005.39
2017-06-23T05:40:48.849Z,1005.4
2017-06-23T05:41:48.840Z,1005.43
2017-06-23T05:42:48.830Z,1005.39
2017-06-23T05:43:48.822Z,1005.48
2017-06-23T05:44:48.814Z,1005.52
2017-06-23T05:45:48.806Z,1005.54
2017-06-23T05:46:48.801Z,1005.57
2017-06-23T05:47:48.789Z,1005.54
2017-06-23T05:48:48.783Z,1005.54
2017-06-23T05:49:48.773Z,1005.54
2017-06-23T05:50:48.765Z,1005.56
2017-06-23T05:51:48.757Z,1005.58
2017-06-23T05:52:48.749Z,1005.6
2017-06-23T05:53:48.740Z,1005.62
2017-06-23T05:54:48.732Z,1005.6
2017-06-23T05:55:48.724Z,1005.63
2017-06-23T05:56:48.718Z,1005.62
2017-06-23T05:57:48.708Z,1005.68
2017-06-23T05:58:48.701Z,1005.67
2017-06-23T05:59:48.694Z,1005.64
2017-06-23T06:00:48.686Z,1005.66
2017-06-23T06:01:48.678Z,1005.68
2017-06-23T06:02:48.669Z,1005.68
2017-06-23T06:03:48.662Z,1005.65
2017-06-23T06:04:48.654Z,1005.7
2017-06-23T06:05:48.649Z,1005.7
2017-06-23T06:06:48.639Z,1005.72
2017-06-23T06:07:48.632Z,1005.69
2017-06-23T06:08:48.622Z,1005.73
2017-06-23T06:09:48.615Z,1005.77
2017-06-23T06:10:48.606Z,1005.72
2017-06-23T06:11:48.599Z,1005.76
2017-06-23T06:12:48.591Z,1005.77
2017-06-23T06:13:48.584Z,1005.76
2017-06-23T06:14:48.575Z,1005.73
2017-06-23T06:15:48.567Z,1005.78
2017-06-23T06:16:48.560Z,1005.74
2017-06-23T06:17:48.555Z,1005.78
2017-06-23T06:18:48.543Z,1005.74
2017-06-23T06:19:48.537Z,1005.71
2017-06-23T06:20:48.530Z,1005.71
2017-06-23T06:21:48.522Z,1005.75
2017-06-23T06:22:48.515Z,1005.75
2017-06-23T06:23:48.507Z,1005.74
2017-06-23T06:24:48.500Z,1005.76
2017-06-23T06:25:48.492Z,1005.74
2017-06-23T06:26:48.511Z,1005.73
2017-06-23T06:27:48.478Z,1005.72
2017-06-23T06:28:48.472Z,1005.7
2017-06-23T06:29:48.462Z,1005.72
2017-06-23T06:30:48.461Z,1005.73
2017-06-23T06:31:48.449Z,1005.71
2017-06-23T06:32:48.442Z,1005.78
2017-06-23T06:33:48.433Z,1005.78
2017-06-23T06:34:48.426Z,1005.7
2017-06-23T06:35:48.419Z,1005.81
2017-06-23T06:36:48.413Z,1005.77
2017-06-23T06:37:48.406Z,1005.79
2017-06-23T06:38:48.398Z,1005.81
2017-06-23T06:39:48.391Z,1005.81
2017-06-23T06:40:48.383Z,1005.88
2017-06-23T06:41:48.375Z,1005.82
2017-06-23T06:42:48.370Z,1005.82
2017-06-23T06:43:48.362Z,1005.89
2017-06-23T06:44:48.355Z,1005.87
2017-06-23T06:45:48.347Z,1005.83
2017-06-23T06:46:48.341Z,1005.88
2017-06-23T06:47:48.335Z,1005.93
2017-06-23T06:48:48.326Z,1005.92
2017-06-23T06:49:48.320Z,1005.87
2017-06-23T06:50:48.315Z,1005.88
2017-06-23T06:51:48.304Z,1005.96
2017-06-23T06:52:48.302Z,1005.93
2017-06-23T06:53:48.292Z,1005.89
2017-06-23T06:54:48.285Z,1005.92
2017-06-23T06:55:48.277Z,1005.95
2017-06-23T06:56:48.271Z,1005.94
2017-06-23T06:57:48.264Z,1005.95
2017-06-23T06:58:48.257Z,1005.97
2017-06-23T06:59:48.252Z,1006.01
2017-06-23T07:00:48.245Z,1005.94
2017-06-23T07:01:48.238Z,1005.99
2017-06-23T07:02:48.229Z,1005.99
2017-06-23T07:03:48.224Z,1005.99
2017-06-23T07:04:48.218Z,1005.96
2017-06-23T07:05:48.212Z,1005.93
2017-06-23T07:06:48.204Z,1006.01
2017-06-23T07:07:48.199Z,1006.01
2017-06-23T07:08:48.193Z,1006.01
2017-06-23T07:09:48.186Z,1006
2017-06-23T07:10:48.177Z,1006.02
2017-06-23T07:11:48.170Z,1005.98
2017-06-23T07:12:48.167Z,1006.02
2017-06-23T07:13:48.157Z,1005.99
2017-06-23T07:14:48.150Z,1006.08
2017-06-23T07:15:48.148Z,1006.06
2017-06-23T07:16:48.137Z,1006.09
2017-06-23T07:17:48.131Z,1006.01
2017-06-23T07:18:48.125Z,1006.09
2017-06-23T07:19:48.118Z,1006.05
2017-06-23T07:20:48.112Z,1006.04
2017-06-23T07:21:48.104Z,1006.07
2017-06-23T07:22:48.124Z,1006.03
2017-06-23T07:23:48.092Z,1006.06
2017-06-23T07:24:48.086Z,1005.99
2017-06-23T07:25:48.085Z,1006.04
2017-06-23T07:26:48.074Z,1006.03
2017-06-23T07:27:48.069Z,1006.03
2017-06-23T07:28:48.061Z,1006.08
2017-06-23T07:29:48.055Z,1006.04
2017-06-23T07:30:48.049Z,1006.05
2017-06-23T07:31:48.043Z,1006.05
2017-06-23T07:32:48.037Z,1006.12
2017-06-23T07:33:48.032Z,1006.1
2017-06-23T07:34:48.025Z,1006.09
2017-06-23T07:35:48.021Z,1006.04
2017-06-23T07:36:48.013Z,1006.06
2017-06-23T07:37:48.009Z,1006.06
2017-06-23T07:38:48.000Z,1006.16
2017-06-23T07:39:47.994Z,1006.06
2017-06-23T07:40:47.988Z,1006.07
2017-06-23T07:41:47.982Z,1006.1
2017-06-23T07:42:47.974Z,1006.08
2017-06-23T07:43:47.970Z,1006.09
2017-06-23T07:44:47.969Z,1006.1
2017-06-23T07:45:47.957Z,1006.14
2017-06-23T07:46:47.950Z,1006.15
2017-06-23T07:47:47.945Z,1006.17
2017-06-23T07:48:47.938Z,1006.22
2017-06-23T07:49:47.932Z,1006.15
2017-06-23T07:50:47.955Z,1006.3
2017-06-23T07:51:47.922Z,1006.22
2017-06-23T07:52:47.916Z,1006.25
2017-06-23T07:53:47.909Z,1006.16
2017-06-23T07:54:47.903Z,1006.17
2017-06-23T07:55:47.899Z,1006.13
2017-06-23T07:56:47.893Z,1006.2
2017-06-23T07:57:47.889Z,1006.18
2017-06-23T07:58:47.882Z,1006.29
2017-06-23T07:59:47.877Z,1006.23
2017-06-23T08:00:47.871Z,1006.26
2017-06-23T08:01:47.865Z,1006.28
2017-06-23T08:02:47.862Z,1006.3
2017-06-23T08:03:47.855Z,1006.41
2017-06-23T08:04:47.870Z,1006.35
2017-06-23T08:05:47.843Z,1006.4
2017-06-23T08:06:47.837Z,1006.42
2017-06-23T08:07:47.834Z,1006.42
2017-06-23T08:08:47.827Z,1006.56
2017-06-23T08:09:47.822Z,1006.59
2017-06-23T08:10:47.818Z,1006.46
2017-06-23T08:11:47.811Z,1006.42
2017-06-23T08:12:47.806Z,1006.45
2017-06-23T08:13:47.801Z,1006.48
2017-06-23T08:14:47.797Z,1006.54
2017-06-23T08:15:47.792Z,1006.59
2017-06-23T08:16:47.786Z,1006.64
2017-06-23T08:17:47.783Z,1006.68
2017-06-23T08:18:47.777Z,1006.64
2017-06-23T08:19:47.773Z,1006.61
2017-06-23T08:20:47.769Z,1006.44
2017-06-23T08:21:47.765Z,1006.8
2017-06-23T08:22:47.763Z,1006.74
2017-06-23T08:23:47.758Z,1006.79
2017-06-23T08:24:47.755Z,1006.72
2017-06-23T08:25:47.751Z,1006.81
2017-06-23T08:26:47.746Z,1006.52
2017-06-23T08:27:47.744Z,1006.58
2017-06-23T08:28:47.741Z,1006.6
2017-06-23T08:29:47.739Z,1006.65
2017-06-23T08:30:47.736Z,1006.69
2017-06-23T08:31:47.732Z,1006.6
2017-06-23T08:32:47.734Z,1006.98
2017-06-23T08:33:47.726Z,1006.69
2017-06-23T08:34:47.723Z,1006.53
2017-06-23T08:35:47.719Z,1006.57
2017-06-23T08:36:47.717Z,1006.61
2017-06-23T08:37:47.717Z,1006.6
2017-06-23T08:38:47.713Z,1006.64
2017-06-23T08:39:47.706Z,1006.65
2017-06-23T08:40:47.703Z,1006.66
2017-06-23T08:41:47.700Z,1006.59
2017-06-23T08:42:47.696Z,1006.83
2017-06-23T08:43:47.692Z,1006.8
2017-06-23T08:44:47.690Z,1007
2017-06-23T08:45:47.684Z,1006.67
2017-06-23T08:46:47.684Z,1006.64
2017-06-23T08:47:47.677Z,1006.61
2017-06-23T08:48:47.673Z,1006.66
2017-06-23T08:49:47.669Z,1006.67
2017-06-23T08:50:47.665Z,1006.72
2017-06-23T08:51:47.661Z,1006.69
2017-06-23T08:52:47.656Z,1006.69
2017-06-23T08:53:47.650Z,1006.7
2017-06-23T08:54:47.653Z,1006.75
2017-06-23T08:55:47.642Z,1006.74
2017-06-23T08:56:47.638Z,1006.74
2017-06-23T08:57:47.634Z,1006.76
2017-06-23T08:58:47.632Z,1006.77
2017-06-23T08:59:47.628Z,1006.73
2017-06-23T09:00:47.619Z,1007.03
2017-06-23T09:01:47.615Z,1006.83
2017-06-23T09:02:47.610Z,1006.86
2017-06-23T09:03:47.607Z,1006.71
2017-06-23T09:04:47.602Z,1006.74
2017-06-23T09:05:47.598Z,1006.78
2017-06-23T09:06:47.591Z,1006.82
2017-06-23T09:07:47.591Z,1006.79
2017-06-23T09:08:47.585Z,1006.83
2017-06-23T09:09:47.581Z,1006.84
2017-06-23T09:10:47.579Z,1006.85
2017-06-23T09:11:47.579Z,1007.06
2017-06-23T09:12:47.574Z,1007.11
2017-06-23T09:13:47.564Z,1007.15
2017-06-23T09:14:47.557Z,1007.13
2017-06-23T09:15:47.556Z,1006.87
2017-06-23T09:16:47.554Z,1007.02
2017-06-23T09:17:47.548Z,1007.08
2017-06-23T09:18:47.543Z,1007
2017-06-23T09:19:47.538Z,1006.9
2017-06-23T09:20:47.536Z,1006.94
2017-06-23T09:21:47.532Z,1006.92
2017-06-23T09:22:47.528Z,1006.93
2017-06-23T09:23:47.526Z,1007.3
2017-06-23T09:24:47.521Z,1006.91
2017-06-23T09:25:47.516Z,1006.89
2017-06-23T09:26:47.514Z,1006.85
2017-06-23T09:27:47.510Z,1006.84
2017-06-23T09:28:47.507Z,1006.85
2017-06-23T09:29:47.503Z,1006.86
2017-06-23T09:30:47.501Z,1006.88
2017-06-23T09:31:47.497Z,1007.04
2017-06-23T09:32:47.491Z,1006.93
2017-06-23T09:33:47.488Z,1006.96
2017-06-23T09:34:47.485Z,1007.46
2017-06-23T09:35:47.482Z,1007.48
2017-06-23T09:36:47.476Z,1007.41
2017-06-23T09:37:47.474Z,1007.49
2017-06-23T09:38:47.471Z,1007.47
2017-06-23T09:39:47.467Z,1007.46
2017-06-23T09:40:47.464Z,1007.43
2017-06-23T09:41:47.463Z,1007.52
2017-06-23T09:42:47.460Z,1007.47
2017-06-23T09:43:47.457Z,1007.53
2017-06-23T09:44:47.456Z,1007.58
2017-06-23T09:45:47.455Z,1007.56
2017-06-23T09:46:47.455Z,1007.56
2017-06-23T09:47:47.452Z,1007.43
2017-06-23T09:48:47.455Z,1007.01
2017-06-23T09:49:47.452Z,1007.24
2017-06-23T09:50:47.450Z,1007.52
2017-06-23T09:51:47.451Z,1006.93
2017-06-23T09:52:47.448Z,1007.34
2017-06-23T09:53:47.450Z,1006.89
2017-06-23T09:54:47.448Z,1007.24
2017-06-23T09:55:47.449Z,1007.47
2017-06-23T09:56:47.446Z,1007.43
2017-06-23T09:57:47.448Z,1007.36
2017-06-23T09:58:47.446Z,1007.2
2017-06-23T09:59:47.446Z,1007.12
2017-06-23T10:00:47.445Z,1007.46
2017-06-23T10:01:47.445Z,1007.43
2017-06-23T10:02:47.445Z,1007.4
2017-06-23T10:03:47.448Z,1006.94
2017-06-23T10:04:47.446Z,1006.96
2017-06-23T10:05:47.444Z,1006.97
2017-06-23T10:06:47.445Z,1006.97
2017-06-23T10:07:47.444Z,1006.99
2017-06-23T10:08:47.444Z,1007.01
2017-06-23T10:09:47.443Z,1006.92
2017-06-23T10:10:47.441Z,1006.98
2017-06-23T10:11:47.443Z,1007.15
2017-06-23T10:12:47.439Z,1007.04
2017-06-23T10:13:47.436Z,1007.04
2017-06-23T10:14:47.436Z,1007.08
2017-06-23T10:15:47.433Z,1007.48
2017-06-23T10:16:47.430Z,1007.44
2017-06-23T10:17:47.429Z,1007.47
2017-06-23T10:18:47.426Z,1007.32
2017-06-23T10:19:47.424Z,1007.51
2017-06-23T10:20:47.424Z,1007.36
2017-06-23T10:21:47.421Z,1007.27
2017-06-23T10:22:47.420Z,1007.04
2017-06-23T10:23:47.418Z,1007.1
2017-06-23T10:24:47.419Z,1006.92
2017-06-23T10:25:47.416Z,1006.94
2017-06-23T10:26:47.459Z,1007.27
2017-06-23T10:27:47.413Z,1007.06
2017-06-23T10:28:47.412Z,1007.13
2017-06-23T10:29:47.411Z,1007.33
2017-06-23T10:30:47.408Z,1007.36
2017-06-23T10:31:47.406Z,1007.43
2017-06-23T10:32:47.407Z,1007.16
2017-06-23T10:33:47.403Z,1006.97
2017-06-23T10:34:47.402Z,1006.94
2017-06-23T10:35:47.401Z,1007.06
2017-06-23T10:36:47.400Z,1006.96
2017-06-23T10:37:47.397Z,1006.99
2017-06-23T10:38:47.396Z,1006.99
2017-06-23T10:39:47.446Z,1006.96
2017-06-23T10:40:47.394Z,1006.97
2017-06-23T10:41:47.391Z,1007.04
2017-06-23T10:42:47.387Z,1007.09
2017-06-23T10:43:47.385Z,1007.06
2017-06-23T10:44:47.383Z,1007.02
2017-06-23T10:45:47.379Z,1007.03
2017-06-23T10:46:47.376Z,1007.18
2017-06-23T10:47:47.374Z,1007.21
2017-06-23T10:48:47.370Z,1007.2
2017-06-23T10:49:47.368Z,1007.15
2017-06-23T10:50:47.366Z,1007.22
2017-06-23T10:51:47.363Z,1007.18
2017-06-23T10:52:47.362Z,1007.11
2017-06-23T10:53:47.361Z,1007.09
2017-06-23T10:54:47.358Z,1007.07
2017-06-23T10:55:47.357Z,1007.14
2017-06-23T10:56:47.355Z,1007.03
2017-06-23T10:57:47.354Z,1007.02
2017-06-23T10:58:47.353Z,1007.05
2017-06-23T10:59:47.353Z,1007.04
2017-06-23T11:00:47.351Z,1007.02
2017-06-23T11:01:47.350Z,1006.98
2017-06-23T11:02:47.350Z,1007.04
2017-06-23T11:03:47.347Z,1006.98
2017-06-23T11:04:47.347Z,1007.03
2017-06-23T11:05:47.344Z,1006.97
2017-06-23T11:06:47.343Z,1007.02
2017-06-23T11:07:47.341Z,1007.01
2017-06-23T11:08:47.337Z,1007.05
2017-06-23T11:09:47.339Z,1007.02
2017-06-23T11:10:47.385Z,1007.04
2017-06-23T11:11:47.341Z,1007.14
2017-06-23T11:12:47.327Z,1007.06
2017-06-23T11:13:47.326Z,1007.15
2017-06-23T11:14:47.323Z,1007.15
2017-06-23T11:15:47.322Z,1007.12
2017-06-23T11:16:47.319Z,1007.24
2017-06-23T11:17:47.317Z,1007.19
2017-06-23T11:18:47.317Z,1007.17
2017-06-23T11:19:47.316Z,1007.16
2017-06-23T11:20:47.313Z,1007.11
2017-06-23T11:21:47.313Z,1007.01
2017-06-23T11:22:47.311Z,1007.12
2017-06-23T11:23:47.311Z,1007.07
2017-06-23T11:24:47.311Z,1007.04
2017-06-23T11:25:47.310Z,1007.1
2017-06-23T11:26:47.309Z,1007.1
2017-06-23T11:27:47.309Z,1007.09
2017-06-23T11:28:47.309Z,1007.16
2017-06-23T11:29:47.309Z,1007.13
2017-06-23T11:30:47.306Z,1007.16
2017-06-23T11:31:47.306Z,1007.15
2017-06-23T11:32:47.304Z,1007.12
2017-06-23T11:33:47.305Z,1007.25
2017-06-23T11:34:47.302Z,1007.18
2017-06-23T11:35:47.501Z,1007.16
2017-06-23T11:36:47.299Z,1007.16
2017-06-23T11:37:47.297Z,1007.22
2017-06-23T11:38:47.296Z,1007.09
2017-06-23T11:39:47.295Z,1007.09
2017-06-23T11:40:47.294Z,1007.03
2017-06-23T11:41:47.294Z,1007.01
2017-06-23T11:42:47.292Z,1007.04
2017-06-23T11:43:47.291Z,1007.03
2017-06-23T11:44:47.290Z,1007.07
2017-06-23T11:45:47.289Z,1007.09
2017-06-23T11:46:47.288Z,1007.09
2017-06-23T11:47:47.286Z,1007.16
2017-06-23T11:48:47.285Z,1007.13
2017-06-23T11:49:47.285Z,1007.12
2017-06-23T11:50:47.283Z,1007.13
2017-06-23T11:51:47.285Z,1007.09
2017-06-23T11:52:47.306Z,1007.06
2017-06-23T11:53:47.283Z,1007.06
2017-06-23T11:54:47.283Z,1007.09
2017-06-23T11:55:47.283Z,1007.04
2017-06-23T11:56:47.285Z,1007.03
2017-06-23T11:57:47.286Z,1007.08
2017-06-23T11:58:47.285Z,1007.02
2017-06-23T11:59:47.287Z,1006.98
2017-06-23T12:00:47.288Z,1007.05
2017-06-23T12:01:47.290Z,1007.01
2017-06-23T12:02:47.289Z,1007.03
2017-06-23T12:03:47.289Z,1006.97
2017-06-23T12:04:47.291Z,1006.98
2017-06-23T12:05:47.293Z,1006.96
2017-06-23T12:06:47.293Z,1006.95
2017-06-23T12:07:47.291Z,1006.94
2017-06-23T12:08:47.291Z,1006.91
2017-06-23T12:09:47.292Z,1006.93